createdAt,value
2022-08-05T00:02:07.306Z,100074.16
2022-08-05T00:04:37.214Z,100073.75
2022-08-05T00:07:26.920Z,100071.78
2022-08-05T00:09:56.462Z,100079.56
2022-08-05T00:12:28.699Z,100082.25
2022-08-05T00:14:58.317Z,100082.13
2022-08-05T00:17:27.946Z,100065.00
2022-08-05T00:20:01.986Z,100074.75
2022-08-05T00:22:32.710Z,100085.63
2022-08-05T00:25:02.338Z,100072.34
2022-08-05T00:27:42.882Z,100074.34
2022-08-05T00:30:13.589Z,100074.47
2022-08-05T00:32:43.237Z,100070.63
2022-08-05T00:35:13.019Z,100072.19
2022-08-05T00:37:52.741Z,100069.66
2022-08-05T00:40:27.206Z,100068.81
2022-08-05T00:43:07.587Z,100059.03
2022-08-05T00:45:38.412Z,100061.59
2022-08-05T00:48:10.282Z,100060.59
2022-08-05T00:50:41.331Z,100061.44
2022-08-05T00:54:01.110Z,100062.47
2022-08-05T00:56:04.040Z,100065.16
2022-08-05T00:58:36.336Z,100061.59
2022-08-05T01:01:08.674Z,100067.09
2022-08-05T01:03:38.894Z,100078.97
2022-08-05T01:06:11.190Z,100078.13
2022-08-05T01:08:44.846Z,100097.78
2022-08-05T01:11:22.380Z,100102.34
2022-08-05T01:14:08.719Z,100112.34
2022-08-05T01:16:41.181Z,100112.91
2022-08-05T01:19:30.400Z,100114.16
2022-08-05T01:22:28.960Z,100118.31
2022-08-05T01:25:40.704Z,100118.88
2022-08-05T01:28:29.932Z,100123.94
2022-08-05T01:31:04.317Z,100108.59
2022-08-05T01:33:37.896Z,100118.03
2022-08-05T01:36:16.296Z,100119.56
2022-08-05T01:38:48.460Z,100115.56
2022-08-05T01:41:21.882Z,100112.69
2022-08-05T01:43:54.445Z,100120.53
2022-08-05T01:46:43.161Z,100137.16
2022-08-05T01:49:22.798Z,100143.06
2022-08-05T01:51:53.666Z,100145.28
2022-08-05T01:54:25.707Z,100147.22
2022-08-05T01:58:10.896Z,100152.84
2022-08-05T01:59:51.382Z,100147.00
2022-08-05T02:02:26.110Z,100151.78
2022-08-05T02:05:01.416Z,100163.47
2022-08-05T02:07:33.744Z,100189.22
2022-08-05T02:10:04.269Z,100203.22
2022-08-05T02:12:43.164Z,100211.63
2022-08-05T02:15:19.622Z,100213.97
2022-08-05T02:18:32.359Z,100195.88
2022-08-05T02:20:47.308Z,100203.94
2022-08-05T02:23:22.396Z,100197.84
2022-08-05T02:25:52.805Z,100206.13
2022-08-05T02:28:29.168Z,100214.44
2022-08-05T02:31:06.049Z,100213.72
2022-08-05T02:33:42.081Z,100224.69
2022-08-05T02:36:16.037Z,100224.97
2022-08-05T02:38:53.646Z,100236.66
2022-08-05T02:41:28.596Z,100235.91
2022-08-05T02:44:11.200Z,100251.28
2022-08-05T02:46:58.570Z,100263.72
2022-08-05T02:49:37.162Z,100265.44
2022-08-05T02:52:11.515Z,100274.25
2022-08-05T02:54:42.330Z,100295.72
2022-08-05T02:58:11.929Z,100325.13
2022-08-05T03:00:12.558Z,100353.53
2022-08-05T03:02:47.170Z,100339.28
2022-08-05T03:05:21.839Z,100299.97
2022-08-05T03:08:09.487Z,100241.41
2022-08-05T03:10:39.393Z,100205.34
2022-08-05T03:13:16.833Z,100170.63
2022-08-05T03:15:47.307Z,100106.56
2022-08-05T03:18:30.115Z,100067.34
2022-08-05T03:21:00.383Z,100050.28
2022-08-05T03:23:30.140Z,100086.06
2022-08-05T03:26:04.449Z,100097.41
2022-08-05T03:28:50.379Z,100121.94
2022-08-05T03:31:55.607Z,100131.19
2022-08-05T03:34:13.888Z,100135.72
2022-08-05T03:36:43.792Z,100155.41
2022-08-05T03:39:20.201Z,100183.03
2022-08-05T03:41:57.217Z,100198.88
2022-08-05T03:44:29.121Z,100217.25
2022-08-05T03:46:58.793Z,100216.94
2022-08-05T03:49:52.027Z,100201.47
2022-08-05T03:52:49.352Z,100201.97
2022-08-05T03:56:01.438Z,100201.59
2022-08-05T03:58:08.354Z,100199.56
2022-08-05T04:00:41.897Z,100206.38
2022-08-05T04:03:15.040Z,100202.63
2022-08-05T04:06:01.052Z,100202.50
2022-08-05T04:08:36.216Z,100195.19
2022-08-05T04:11:08.644Z,100192.28
2022-08-05T04:13:49.676Z,100181.44
2022-08-05T04:16:25.328Z,100181.19
2022-08-05T04:19:02.742Z,100174.03
2022-08-05T04:22:10.007Z,100156.13
2022-08-05T04:24:32.686Z,100139.91
2022-08-05T04:27:02.302Z,100125.69
2022-08-05T04:29:32.183Z,100121.53
2022-08-05T04:32:02.427Z,100127.84
2022-08-05T04:34:34.552Z,100127.84
2022-08-05T04:37:08.459Z,100132.13
2022-08-05T04:39:39.171Z,100140.88
2022-08-05T04:42:10.769Z,100160.28
2022-08-05T04:44:41.681Z,100185.88
2022-08-05T04:47:13.651Z,100188.94
2022-08-05T04:50:02.026Z,100158.22
2022-08-05T04:52:38.985Z,100181.25
2022-08-05T04:55:14.442Z,100193.56
2022-08-05T04:57:47.776Z,100200.59
2022-08-05T05:00:23.519Z,100194.28
2022-08-05T05:02:53.760Z,100207.69
2022-08-05T05:05:28.682Z,100214.75
2022-08-05T05:08:03.528Z,100196.25
2022-08-05T05:10:34.621Z,100184.66
2022-08-05T05:13:05.068Z,100171.38
2022-08-05T05:15:59.044Z,100203.28
2022-08-05T05:18:31.601Z,100199.19
2022-08-05T05:21:05.532Z,100200.88
2022-08-05T05:24:02.111Z,100194.66
2022-08-05T05:26:28.778Z,100198.03
2022-08-05T05:29:14.411Z,100193.91
2022-08-05T05:31:46.266Z,100203.13
2022-08-05T05:34:21.177Z,100200.06
2022-08-05T05:36:55.476Z,100191.78
2022-08-05T05:39:31.683Z,100202.13
2022-08-05T05:42:04.768Z,100207.03
2022-08-05T05:44:36.647Z,100208.50
2022-08-05T05:47:21.236Z,100211.75
2022-08-05T05:49:56.639Z,100209.56
2022-08-05T05:52:33.192Z,100207.22
2022-08-05T05:55:13.551Z,100201.31
2022-08-05T05:57:53.016Z,100200.22
2022-08-05T06:00:27.604Z,100204.22
2022-08-05T06:03:01.420Z,100200.06
2022-08-05T06:05:31.911Z,100202.63
2022-08-05T06:08:02.290Z,100205.16
2022-08-05T06:10:37.560Z,100200.97
2022-08-05T06:13:18.863Z,100200.34
2022-08-05T06:16:29.280Z,100205.78
2022-08-05T06:18:39.354Z,100212.44
2022-08-05T06:21:18.563Z,100214.16
2022-08-05T06:23:49.789Z,100214.88
2022-08-05T06:26:24.216Z,100222.84
2022-08-05T06:28:54.712Z,100233.44
2022-08-05T06:31:32.168Z,100239.06
2022-08-05T06:34:07.634Z,100244.44
2022-08-05T06:36:57.413Z,100260.69
2022-08-05T06:39:28.584Z,100263.66
2022-08-05T06:42:04.643Z,100263.03
2022-08-05T06:44:34.793Z,100265.28
2022-08-05T06:47:04.391Z,100271.63
2022-08-05T06:50:00.863Z,100267.50
2022-08-05T06:52:36.609Z,100259.56
2022-08-05T06:55:08.502Z,100260.88
2022-08-05T06:58:02.768Z,100262.31
2022-08-05T07:00:32.843Z,100265.84
2022-08-05T07:03:03.255Z,100267.31
2022-08-05T07:05:41.295Z,100266.19
2022-08-05T07:08:11.279Z,100257.16
2022-08-05T07:10:52.899Z,100265.69
2022-08-05T07:13:57.568Z,100267.13
2022-08-05T07:17:58.678Z,100270.78
2022-08-05T07:20:16.453Z,100270.66
2022-08-05T07:22:28.116Z,100289.84
2022-08-05T07:25:23.257Z,100286.19
2022-08-05T07:27:58.373Z,100291.28
2022-08-05T07:30:39.075Z,100296.41
2022-08-05T07:33:16.007Z,100299.81
2022-08-05T07:36:02.249Z,100307.47
2022-08-05T07:38:43.412Z,100314.25
2022-08-05T07:42:09.232Z,100317.09
2022-08-05T07:44:18.660Z,100324.34
2022-08-05T07:46:51.851Z,100323.28
2022-08-05T07:49:22.011Z,100318.06
2022-08-05T07:51:54.868Z,100329.56
2022-08-05T07:54:30.233Z,100324.69
2022-08-05T07:57:41.334Z,100333.25
2022-08-05T07:59:51.144Z,100341.59
2022-08-05T08:02:30.912Z,100349.59
2022-08-05T08:05:01.512Z,100356.44
2022-08-05T08:07:39.660Z,100349.38
2022-08-05T08:10:21.312Z,100364.97
2022-08-05T08:12:51.082Z,100372.25
2022-08-05T08:16:33.387Z,100384.06
2022-08-05T08:18:14.397Z,100386.50
2022-08-05T08:21:02.963Z,100380.41
2022-08-05T08:24:02.398Z,100388.34
2022-08-05T08:26:26.522Z,100390.78
2022-08-05T08:29:02.317Z,100385.16
2022-08-05T08:31:48.601Z,100391.28
2022-08-05T08:34:30.808Z,100401.53
2022-08-05T08:37:03.220Z,100405.91
2022-08-05T08:39:37.579Z,100411.28
2022-08-05T08:42:27.582Z,100411.13
2022-08-05T08:45:23.520Z,100406.72
2022-08-05T08:48:13.054Z,100417.72
2022-08-05T08:51:22.493Z,100420.84
2022-08-05T08:53:36.503Z,100416.59
2022-08-05T08:56:06.584Z,100430.66
2022-08-05T08:58:37.491Z,100426.50
2022-08-05T09:01:17.144Z,100428.84
2022-08-05T09:03:54.373Z,100445.09
2022-08-05T09:06:32.171Z,100448.31
2022-08-05T09:09:07.384Z,100456.22
2022-08-05T09:11:51.671Z,100457.41
2022-08-05T09:14:56.576Z,100472.00
2022-08-05T09:17:15.915Z,100471.59
2022-08-05T09:20:08.482Z,100475.69
2022-08-05T09:23:18.697Z,100478.38
2022-08-05T09:26:00.898Z,100474.94
2022-08-05T09:28:34.076Z,100470.78
2022-08-05T09:31:43.687Z,100469.34
2022-08-05T09:33:59.037Z,100483.91
2022-08-05T09:36:45.952Z,100487.00
2022-08-05T09:39:41.961Z,100488.72
2022-08-05T09:42:23.391Z,100484.03
2022-08-05T09:45:17.895Z,100492.25
2022-08-05T09:47:56.237Z,100485.72
2022-08-05T09:50:44.599Z,100483.47
2022-08-05T09:53:25.727Z,100498.41
2022-08-05T09:56:03.917Z,100496.63
2022-08-05T09:58:35.419Z,100492.50
2022-08-05T10:01:13.744Z,100496.78
2022-08-05T10:04:00.312Z,100500.03
2022-08-05T10:06:30.918Z,100510.16
2022-08-05T10:09:27.286Z,100517.13
2022-08-05T10:12:18.891Z,100525.78
2022-08-05T10:15:20.634Z,100523.63
2022-08-05T10:18:09.124Z,100530.28
2022-08-05T10:20:41.739Z,100536.25
2022-08-05T10:23:34.169Z,100536.66
2022-08-05T10:26:04.937Z,100536.34
2022-08-05T10:28:39.624Z,100543.97
2022-08-05T10:32:50.668Z,100537.47
2022-08-05T10:34:01.511Z,100539.41
2022-08-05T10:36:32.272Z,100551.28
2022-08-05T10:39:10.400Z,100551.53
2022-08-05T10:41:50.421Z,100561.88
2022-08-05T10:44:23.639Z,100563.38
2022-08-05T10:46:56.459Z,100557.19
2022-08-05T10:49:33.400Z,100561.34
2022-08-05T10:52:46.960Z,100570.31
2022-08-05T10:55:19.310Z,100575.25
2022-08-05T10:57:51.376Z,100576.16
2022-08-05T11:00:26.393Z,100579.19
2022-08-05T11:03:25.285Z,100587.78
2022-08-05T11:06:16.210Z,100583.53
2022-08-05T11:09:16.797Z,100590.78
2022-08-05T11:11:53.378Z,100599.03
2022-08-05T11:14:57.638Z,100606.97
2022-08-05T11:18:00.520Z,100609.53
2022-08-05T11:20:39.148Z,100612.25
2022-08-05T11:23:33.321Z,100608.94
2022-08-05T11:26:32.134Z,100616.66
2022-08-05T11:29:06.906Z,100609.13
2022-08-05T11:31:54.345Z,100610.41
2022-08-05T11:34:51.393Z,100618.38
2022-08-05T11:38:28.730Z,100621.06
2022-08-05T11:41:03.504Z,100615.66
2022-08-05T11:44:04.462Z,100608.41
2022-08-05T11:46:36.414Z,100605.44
2022-08-05T11:49:10.040Z,100609.25
2022-08-05T11:51:49.137Z,100612.84
2022-08-05T11:54:33.633Z,100606.69
2022-08-05T11:57:07.971Z,100609.00
2022-08-05T11:59:50.205Z,100610.25
2022-08-05T12:02:29.726Z,100612.97
2022-08-05T12:05:07.637Z,100604.66
2022-08-05T12:08:09.628Z,100606.31
2022-08-05T12:10:45.000Z,100611.22
2022-08-05T12:13:28.042Z,100620.94
2022-08-05T12:16:14.775Z,100626.94
2022-08-05T12:18:49.305Z,100620.84
2022-08-05T12:21:24.755Z,100633.53
2022-08-05T12:24:06.782Z,100620.94
2022-08-05T12:26:38.697Z,100624.88
2022-08-05T12:29:15.898Z,100632.38
2022-08-05T12:31:53.189Z,100634.28
2022-08-05T12:34:28.277Z,100637.69
2022-08-05T12:36:59.734Z,100636.28
2022-08-05T12:39:37.083Z,100641.78
2022-08-05T12:42:14.621Z,100646.03
2022-08-05T12:44:45.055Z,100639.50
2022-08-05T12:47:17.230Z,100652.47
2022-08-05T12:50:03.725Z,100646.63
2022-08-05T12:52:39.154Z,100646.94
2022-08-05T12:55:26.154Z,100655.81
2022-08-05T12:58:50.216Z,100653.22
2022-08-05T13:02:02.290Z,100652.34
2022-08-05T13:03:42.145Z,100651.41
2022-08-05T13:06:16.481Z,100658.38
2022-08-05T13:08:52.027Z,100668.16
2022-08-05T13:11:25.316Z,100669.88
2022-08-05T13:14:24.550Z,100665.75
2022-08-05T13:17:08.977Z,100666.34
2022-08-05T13:19:51.125Z,100673.50
2022-08-05T13:22:27.943Z,100671.56
2022-08-05T13:25:05.170Z,100672.72
2022-08-05T13:27:39.927Z,100676.41
2022-08-05T13:30:34.757Z,100676.94
2022-08-05T13:33:02.233Z,100678.09
2022-08-05T13:35:47.176Z,100676.94
2022-08-05T13:38:30.552Z,100683.75
2022-08-05T13:41:01.238Z,100690.84
2022-08-05T13:43:43.387Z,100694.44
2022-08-05T13:46:14.175Z,100699.59
2022-08-05T13:48:57.741Z,100710.22
2022-08-05T13:51:36.557Z,100716.19
2022-08-05T13:54:12.247Z,100713.47
2022-08-05T13:56:45.163Z,100713.97
2022-08-05T13:59:27.433Z,100719.91
2022-08-05T14:02:01.470Z,100716.97
2022-08-05T14:04:49.637Z,100718.56
2022-08-05T14:07:25.873Z,100725.53
2022-08-05T14:10:12.896Z,100722.56
2022-08-05T14:12:48.626Z,100716.16
2022-08-05T14:16:08.157Z,100717.84
2022-08-05T14:18:15.025Z,100715.75
2022-08-05T14:20:48.828Z,100723.84
2022-08-05T14:23:24.537Z,100724.97
2022-08-05T14:25:59.116Z,100728.81
2022-08-05T14:28:29.703Z,100742.22
2022-08-05T14:31:02.883Z,100735.84
2022-08-05T14:33:59.593Z,100735.53
2022-08-05T14:36:23.533Z,100738.81
2022-08-05T14:38:54.177Z,100735.81
2022-08-05T14:41:23.964Z,100735.97
2022-08-05T14:44:02.168Z,100731.84
2022-08-05T14:46:41.704Z,100734.78
2022-08-05T14:49:12.018Z,100734.88
2022-08-05T14:51:43.236Z,100734.59
2022-08-05T14:54:28.141Z,100729.16
2022-08-05T14:57:00.305Z,100737.59
2022-08-05T14:59:35.616Z,100731.75
2022-08-05T15:02:14.992Z,100742.31
2022-08-05T15:04:47.776Z,100741.47
2022-08-05T15:08:08.704Z,100745.44
2022-08-05T15:10:09.932Z,100728.31
2022-08-05T15:13:00.343Z,100734.00
2022-08-05T15:15:54.334Z,100736.41
2022-08-05T15:18:22.028Z,100738.81
2022-08-05T15:20:51.639Z,100741.72
2022-08-05T15:23:21.485Z,100746.47
2022-08-05T15:25:55.872Z,100743.66
2022-08-05T15:28:28.171Z,100750.22
2022-08-05T15:30:59.363Z,100751.22
2022-08-05T15:34:04.848Z,100744.25
2022-08-05T15:36:25.715Z,100756.34
2022-08-05T15:40:42.699Z,100750.66
2022-08-05T15:41:57.311Z,100742.38
2022-08-05T15:44:28.331Z,100753.34
2022-08-05T15:47:00.442Z,100746.66
2022-08-05T15:49:48.105Z,100750.34
2022-08-05T15:52:51.691Z,100748.09
2022-08-05T15:55:15.605Z,100745.78
2022-08-05T15:57:49.079Z,100756.34
2022-08-05T16:00:26.518Z,100745.91
2022-08-05T16:03:02.557Z,100750.41
2022-08-05T16:05:35.267Z,100746.59
2022-08-05T16:08:08.922Z,100748.16
2022-08-05T16:10:39.042Z,100743.88
2022-08-05T16:13:11.072Z,100753.41
2022-08-05T16:15:40.795Z,100750.03
2022-08-05T16:18:12.344Z,100751.16
2022-08-05T16:20:46.767Z,100760.09
2022-08-05T16:23:16.374Z,100761.63
2022-08-05T16:25:46.167Z,100758.97
2022-08-05T16:28:18.084Z,100765.97
2022-08-05T16:30:47.686Z,100771.34
2022-08-05T16:33:20.007Z,100774.56
2022-08-05T16:35:53.054Z,100775.06
2022-08-05T16:38:27.996Z,100780.88
2022-08-05T16:41:00.122Z,100787.53
2022-08-05T16:43:33.109Z,100792.31
2022-08-05T16:46:23.961Z,100798.00
2022-08-05T16:48:55.680Z,100800.94
2022-08-05T16:51:31.061Z,100794.72
2022-08-05T16:54:16.246Z,100805.22
2022-08-05T16:56:47.122Z,100804.63
2022-08-05T16:59:22.312Z,100804.28
2022-08-05T17:01:54.759Z,100812.91
2022-08-05T17:04:28.219Z,100816.00
2022-08-05T17:07:03.596Z,100813.81
2022-08-05T17:09:59.429Z,100820.59
2022-08-05T17:12:51.486Z,100817.66
2022-08-05T17:15:19.585Z,100816.06
2022-08-05T17:18:02.234Z,100828.09
2022-08-05T17:20:32.047Z,100826.16
2022-08-05T17:23:04.197Z,100821.91
2022-08-05T17:25:40.387Z,100828.53
2022-08-05T17:28:11.034Z,100834.31
2022-08-05T17:30:52.162Z,100828.97
2022-08-05T17:33:23.217Z,100839.38
2022-08-05T17:36:09.076Z,100841.44
2022-08-05T17:38:42.435Z,100833.44
2022-08-05T17:42:17.351Z,100842.38
2022-08-05T17:44:02.164Z,100844.22
2022-08-05T17:46:32.936Z,100841.66
2022-08-05T17:49:02.493Z,100850.06
2022-08-05T17:51:40.307Z,100858.66
2022-08-05T17:54:12.959Z,100856.41
2022-08-05T17:56:44.725Z,100857.03
2022-08-05T17:59:22.581Z,100861.03
2022-08-05T18:01:52.351Z,100864.22
2022-08-05T18:04:27.836Z,100876.56
2022-08-05T18:07:00.546Z,100882.53
2022-08-05T18:09:59.848Z,100882.97
2022-08-05T18:12:24.496Z,100892.25
2022-08-05T18:14:54.758Z,100890.78
2022-08-05T18:17:59.270Z,100888.56
2022-08-05T18:20:15.441Z,100889.38
2022-08-05T18:22:53.831Z,100895.41
2022-08-05T18:25:33.163Z,100901.47
2022-08-05T18:28:05.018Z,100899.56
2022-08-05T18:30:35.709Z,100909.28
2022-08-05T18:33:13.522Z,100916.16
2022-08-05T18:36:00.583Z,100925.88
2022-08-05T18:38:33.385Z,100920.31
2022-08-05T18:41:59.548Z,100920.75
2022-08-05T18:43:57.023Z,100931.28
2022-08-05T18:46:35.410Z,100934.69
2022-08-05T18:49:30.385Z,100935.31
2022-08-05T18:52:12.862Z,100940.47
2022-08-05T18:54:45.989Z,100941.13
2022-08-05T18:57:19.740Z,100942.63
2022-08-05T19:00:01.654Z,100950.34
2022-08-05T19:02:33.000Z,100949.16
2022-08-05T19:06:06.159Z,100952.56
2022-08-05T19:07:53.037Z,100959.59
2022-08-05T19:10:27.868Z,100956.66
2022-08-05T19:13:00.784Z,100967.09
2022-08-05T19:16:00.144Z,100965.13
2022-08-05T19:18:22.670Z,100969.56
2022-08-05T19:20:53.890Z,100972.72
2022-08-05T19:24:07.299Z,100977.81
2022-08-05T19:26:13.911Z,100984.78
2022-08-05T19:28:46.879Z,100984.50
2022-08-05T19:31:21.553Z,100991.31
2022-08-05T19:33:55.987Z,100992.66
2022-08-05T19:36:26.773Z,101000.31
2022-08-05T19:39:01.037Z,101005.28
2022-08-05T19:42:05.783Z,101015.63
2022-08-05T19:44:23.303Z,101019.03
2022-08-05T19:46:58.894Z,101033.81
2022-08-05T19:49:28.683Z,101027.97
2022-08-05T19:52:09.326Z,101041.72
2022-08-05T19:54:50.553Z,101038.69
2022-08-05T19:57:48.984Z,101047.94
2022-08-05T20:00:14.682Z,101046.75
2022-08-05T20:02:44.238Z,101057.09
2022-08-05T20:05:16.756Z,101056.75
2022-08-05T20:07:58.899Z,101068.94
2022-08-05T20:10:29.048Z,101067.56
2022-08-05T20:12:58.625Z,101073.38
2022-08-05T20:15:52.253Z,101074.72
2022-08-05T20:18:32.852Z,101071.69
2022-08-05T20:21:04.432Z,101081.91
2022-08-05T20:23:39.653Z,101082.31
2022-08-05T20:26:23.441Z,101076.53
2022-08-05T20:28:57.006Z,101088.41
2022-08-05T20:31:42.894Z,101090.47
2022-08-05T20:34:20.175Z,101095.94
2022-08-05T20:36:50.014Z,101103.19
2022-08-05T20:39:19.704Z,101108.59
2022-08-05T20:41:49.453Z,101114.00
2022-08-05T20:44:30.621Z,101116.81
2022-08-05T20:47:05.173Z,101118.66
2022-08-05T20:49:39.661Z,101126.66
2022-08-05T20:52:10.787Z,101130.16
2022-08-05T20:54:43.398Z,101126.56
2022-08-05T20:57:43.281Z,101132.66
2022-08-05T21:00:40.325Z,101132.53
2022-08-05T21:03:09.150Z,101133.47
2022-08-05T21:05:53.465Z,101135.22
2022-08-05T21:08:28.053Z,101125.38
2022-08-05T21:11:09.315Z,101132.63
2022-08-05T21:13:55.852Z,101124.75
2022-08-05T21:16:30.026Z,101142.75
2022-08-05T21:19:03.562Z,101139.44
2022-08-05T21:21:43.702Z,101149.56
2022-08-05T21:24:15.709Z,101148.84
2022-08-05T21:26:58.497Z,101148.31
2022-08-05T21:29:31.568Z,101144.13
2022-08-05T21:32:02.845Z,101148.88
2022-08-05T21:34:35.605Z,101150.94
2022-08-05T21:37:05.402Z,101154.81
2022-08-05T21:39:35.022Z,101158.72
2022-08-05T21:42:30.757Z,101168.72
2022-08-05T21:45:00.369Z,101164.47
2022-08-05T21:47:55.604Z,101166.44
2022-08-05T21:50:22.352Z,101174.56
2022-08-05T21:52:51.979Z,101178.19
2022-08-05T21:55:43.040Z,101166.66
2022-08-05T21:58:17.137Z,101168.47
2022-08-05T22:00:51.035Z,101176.59
2022-08-05T22:03:52.273Z,101171.56
2022-08-05T22:06:16.576Z,101186.88
2022-08-05T22:08:52.920Z,101188.84
2022-08-05T22:11:35.266Z,101191.69
2022-08-05T22:14:34.695Z,101188.41
2022-08-05T22:16:56.907Z,101195.91
2022-08-05T22:20:00.615Z,101197.91
2022-08-05T22:22:27.912Z,101195.50
2022-08-05T22:25:18.067Z,101201.03
2022-08-05T22:28:10.577Z,101200.31
2022-08-05T22:30:44.250Z,101211.09
2022-08-05T22:33:55.348Z,101208.66
2022-08-05T22:36:16.348Z,101207.91
2022-08-05T22:38:49.435Z,101204.31
2022-08-05T22:42:04.316Z,101205.31
2022-08-05T22:44:11.823Z,101206.47
2022-08-05T22:46:41.942Z,101203.91
2022-08-05T22:50:17.317Z,101210.25
2022-08-05T22:52:15.531Z,101207.72
2022-08-05T22:54:57.836Z,101208.69
2022-08-05T22:57:27.413Z,101218.63
2022-08-05T23:00:07.994Z,101219.63
2022-08-05T23:02:46.621Z,101229.59
2022-08-05T23:05:26.351Z,101231.41
2022-08-05T23:07:56.571Z,101234.13
2022-08-05T23:10:31.861Z,101241.31
2022-08-05T23:13:01.841Z,101243.19
2022-08-05T23:15:35.273Z,101245.91
2022-08-05T23:18:11.735Z,101245.13
2022-08-05T23:20:45.659Z,101249.63
2022-08-05T23:23:15.280Z,101254.22
2022-08-05T23:25:51.408Z,101252.69
2022-08-05T23:28:28.994Z,101258.25
2022-08-05T23:31:15.808Z,101263.78
2022-08-05T23:34:06.208Z,101267.53
2022-08-05T23:36:38.722Z,101265.13
2022-08-05T23:39:17.544Z,101275.97
2022-08-05T23:41:56.481Z,101278.00
2022-08-05T23:44:31.054Z,101286.31
2022-08-05T23:47:02.469Z,101287.59
2022-08-05T23:49:45.626Z,101287.91
2022-08-05T23:52:36.205Z,101285.59
2022-08-05T23:55:19.829Z,101296.59
2022-08-05T23:57:53.895Z,101294.28
